Hovedside
METAR-TAF:

METAR-TAF

Lufthavner :

Riga, Latvia

Riga internasjonale lufthavn

breddegrad: 56-55N, lengdegrad: 023-58E, høyde over havet: 10 m

Gjeldene værobservasjon

Denne rapporten ble laget for 12 minutter siden, klokken 10:20 UTC
Vind 11 kt fra Vest-sørvest, skiftende mellom Sør-sørvest og Vest
Temperatur 18°C
Luftfuktighet 49%
Trykk 1002 hPa
Sikt 10 km eller mer
Brutte skyer i en høyde av 4900 ft

METAR: EVRA 251020Z 24011KT 200V270 9999 BKN049 18/07 Q1002 NOSIG

Tid: 13:32 (10:32 UTC)


TAF: fraværende

Værobservasjoner og værvarsel for over 4000 flyplasser (METAR- og TAF-rapporter).

Tilgjengelige stasjoner er representert av de røde og gule prikkene på kartet.

Hold musepekeren over prikken for å se navnet på stasjonen.

Klikk så for å se værobservasjoner og -varsler.

For å forandre kartet kan du klikke på den grønne knappen med svart kryss for å zoome inn, på den grønne knappen med strek for å zoome ut, eller på de grønne pilene for å se tilstøtende kart.


METAR-TAF: